Time;durP1;ratioP1;P1;durP2;ratioP2;P2;SDS_P1;SDS_P2;PMS_P1;PMS_P2;Temp;Humidity;BMP_temperature;BMP_pressure;BME280_temperature;BME280_humidity;BME280_pressure;Samples;Min_cycle;Max_cycle;Signal;HPM_P1;HPM_P2
2023/05/14 00:01:16;;;;;;;9.55;4.22;;;;;;;10.44;100.00;101471.81;4989664;28;20061;-64
2023/05/14 00:03:43;;;;;;;18.05;7.55;;;;;;;10.20;100.00;101471.50;4989205;28;20047;-64
2023/05/14 00:06:10;;;;;;;14.05;5.35;;;;;;;10.19;100.00;101475.00;4989110;28;20050;-64
2023/05/14 00:08:36;;;;;;;11.95;5.68;;;;;;;10.16;100.00;101454.13;4988562;28;20065;-65
2023/05/14 00:11:03;;;;;;;11.57;4.88;;;;;;;10.44;100.00;101466.56;4984353;28;20488;-64
2023/05/14 00:13:30;;;;;;;10.80;4.80;;;;;;;10.42;100.00;101458.75;4970801;28;20050;-64
2023/05/14 00:15:57;;;;;;;9.15;4.10;;;;;;;10.39;100.00;101440.53;4989752;28;20099;-64
2023/05/14 00:18:23;;;;;;;11.93;5.25;;;;;;;10.30;100.00;101432.84;4989184;28;20058;-64
2023/05/14 00:20:53;;;;;;;10.95;4.55;;;;;;;10.27;100.00;101430.31;4988865;28;20052;-64
2023/05/14 00:23:21;;;;;;;14.70;4.82;;;;;;;10.37;100.00;101420.50;4987449;28;20046;-64
2023/05/14 00:25:49;;;;;;;10.00;4.55;;;;;;;10.55;100.00;101433.13;4988993;28;20506;-65
2023/05/14 00:28:16;;;;;;;10.50;4.50;;;;;;;10.59;100.00;101439.16;4960490;28;20055;-64
2023/05/14 00:30:43;;;;;;;15.52;6.10;;;;;;;10.56;100.00;101440.06;4970452;28;20101;-64
2023/05/14 00:33:10;;;;;;;10.63;5.35;;;;;;;10.47;100.00;101434.22;4987631;28;20484;-65
2023/05/14 00:35:36;;;;;;;9.88;4.47;;;;;;;10.25;100.00;101414.66;4989033;28;20054;-65
2023/05/14 00:38:03;;;;;;;13.40;4.70;;;;;;;10.42;100.00;101421.25;4989325;28;20089;-65
2023/05/14 00:40:30;;;;;;;11.98;4.38;;;;;;;10.43;100.00;101423.81;4988985;28;20783;-65
2023/05/14 00:42:57;;;;;;;9.80;4.00;;;;;;;10.48;100.00;101426.31;4988248;28;20514;-64
2023/05/14 00:45:24;;;;;;;9.50;3.85;;;;;;;10.39;100.00;101418.69;4989211;28;20051;-65
2023/05/14 00:47:52;;;;;;;11.90;5.60;;;;;;;10.31;100.00;101418.91;4989164;28;20054;-65
2023/05/14 00:50:20;;;;;;;13.32;4.82;;;;;;;10.26;100.00;101407.66;4993270;28;20058;-65
2023/05/14 00:52:47;;;;;;;9.25;4.07;;;;;;;10.29;100.00;101402.34;4992591;28;20422;-65
2023/05/14 00:55:15;;;;;;;10.63;4.70;;;;;;;10.25;100.00;101406.81;4992477;28;20134;-65
2023/05/14 00:57:42;;;;;;;11.85;4.13;;;;;;;10.29;100.00;101391.00;4993035;28;20077;-65
2023/05/14 01:00:09;;;;;;;13.10;4.97;;;;;;;10.20;100.00;101399.97;4993128;28;20054;-65
2023/05/14 01:02:36;;;;;;;12.75;5.18;;;;;;;9.99;100.00;101386.53;4992600;28;20447;-65
2023/05/14 01:05:04;;;;;;;15.15;5.50;;;;;;;10.18;100.00;101396.50;4990927;28;20595;-65
2023/05/14 01:08:17;;;;;;;13.48;5.60;;;;;;;10.27;100.00;101398.91;4992303;28;20100;-64
2023/05/14 01:11:05;;;;;;;11.02;4.63;;;;;;;10.31;100.00;101399.69;4971380;28;20195;-64
2023/05/14 01:14:09;;;;;;;9.55;4.65;;;;;;;10.13;100.00;101394.03;4978947;28;20539;-64
2023/05/14 01:16:38;;;;;;;12.30;4.90;;;;;;;9.99;100.00;101394.38;4992355;28;20062;-64
2023/05/14 01:19:16;;;;;;;11.05;4.13;;;;;;;10.12;100.00;101379.22;4992229;28;20050;-64
2023/05/14 01:21:42;;;;;;;10.95;5.50;;;;;;;10.03;100.00;101377.69;4992337;28;20129;-64
2023/05/14 01:24:09;;;;;;;10.45;4.57;;;;;;;10.10;100.00;101374.94;4991769;28;20050;-64
2023/05/14 01:26:36;;;;;;;11.35;5.32;;;;;;;10.04;100.00;101368.09;4992294;28;20081;-64
2023/05/14 01:29:18;;;;;;;12.60;5.63;;;;;;;10.13;100.00;101378.34;4977788;28;20054;-65
2023/05/14 01:31:47;;;;;;;13.23;5.00;;;;;;;10.15;100.00;101367.84;4993657;28;20065;-64
2023/05/14 01:34:18;;;;;;;13.07;5.38;;;;;;;10.13;100.00;101361.75;4973872;28;20188;-64
2023/05/14 01:36:47;;;;;;;14.20;5.88;;;;;;;10.12;100.00;101362.66;4974323;28;20062;-64
2023/05/14 01:39:14;;;;;;;9.20;4.30;;;;;;;10.11;100.00;101368.78;4991564;28;20050;-66
2023/05/14 01:41:43;;;;;;;9.75;4.95;;;;;;;10.19;100.00;101353.75;4990846;28;20246;-64
2023/05/14 01:44:10;;;;;;;13.18;5.70;;;;;;;10.04;100.00;101358.50;4990317;28;20133;-64
2023/05/14 01:46:37;;;;;;;13.05;5.50;;;;;;;10.02;100.00;101348.94;4991477;28;20062;-64
2023/05/14 01:49:04;;;;;;;16.27;4.85;;;;;;;9.89;100.00;101345.78;4991487;28;20050;-64
2023/05/14 01:51:30;;;;;;;13.70;5.35;;;;;;;9.87;100.00;101337.13;4992022;28;20641;-64
2023/05/14 01:53:57;;;;;;;11.38;4.40;;;;;;;10.08;100.00;101354.88;4991406;28;20427;-66
2023/05/14 01:56:24;;;;;;;10.95;3.83;;;;;;;10.08;100.00;101346.19;4991733;28;20050;-64
2023/05/14 01:58:51;;;;;;;14.68;5.00;;;;;;;10.07;100.00;101342.72;4990679;28;20400;-64
2023/05/14 02:01:18;;;;;;;10.40;4.50;;;;;;;10.04;100.00;101329.72;4984633;28;20137;-64
2023/05/14 02:03:45;;;;;;;10.45;3.67;;;;;;;10.02;100.00;101321.06;4973348;28;20042;-64
2023/05/14 02:06:12;;;;;;;11.23;4.18;;;;;;;10.17;100.00;101313.69;4990938;28;20057;-64
2023/05/14 02:08:38;;;;;;;16.75;4.82;;;;;;;10.24;100.00;101334.41;4991726;28;20057;-64
2023/05/14 02:11:05;;;;;;;11.13;4.90;;;;;;;10.21;100.00;101342.34;4970444;28;20444;-64
2023/05/14 02:13:32;;;;;;;12.45;4.88;;;;;;;10.25;100.00;101336.16;4990376;28;20728;-65
2023/05/14 02:15:59;;;;;;;9.75;3.88;;;;;;;10.33;100.00;101327.25;4979102;28;20046;-64
2023/05/14 02:18:25;;;;;;;9.45;3.90;;;;;;;10.32;100.00;101321.13;4990817;28;20062;-64
2023/05/14 02:20:52;;;;;;;10.18;4.03;;;;;;;10.26;100.00;101322.13;4990722;28;20054;-64
2023/05/14 02:23:19;;;;;;;12.02;4.72;;;;;;;10.29;100.00;101323.84;4990739;28;20112;-64
2023/05/14 02:25:56;;;;;;;12.50;5.72;;;;;;;10.38;100.00;101325.38;4991257;28;20137;-64
2023/05/14 02:28:23;;;;;;;9.93;4.15;;;;;;;10.52;100.00;101315.38;4978708;28;20050;-64
2023/05/14 02:30:50;;;;;;;13.20;5.15;;;;;;;10.37;100.00;101313.19;4991714;28;20050;-64
2023/05/14 02:33:16;;;;;;;11.10;4.03;;;;;;;10.47;100.00;101309.41;4982432;28;20046;-64
2023/05/14 02:35:43;;;;;;;11.85;4.18;;;;;;;10.50;100.00;101308.44;4990393;28;20077;-64
2023/05/14 02:38:10;;;;;;;11.90;4.47;;;;;;;10.50;100.00;101321.53;4990565;28;20054;-64
2023/05/14 02:40:37;;;;;;;11.73;4.80;;;;;;;10.39;100.00;101300.91;4989095;28;20054;-64
2023/05/14 02:43:05;;;;;;;11.77;5.10;;;;;;;10.35;100.00;101291.44;4990251;28;20050;-64
2023/05/14 02:45:31;;;;;;;13.60;4.88;;;;;;;10.29;100.00;101295.03;4972416;28;20046;-64
2023/05/14 02:47:58;;;;;;;13.25;5.63;;;;;;;10.33;100.00;101286.22;4973137;28;20046;-64
2023/05/14 02:50:25;;;;;;;15.57;6.28;;;;;;;10.19;100.00;101291.81;4989984;28;20054;-64
2023/05/14 02:52:52;;;;;;;14.18;5.63;;;;;;;10.23;100.00;101287.34;4989779;28;20466;-64
2023/05/14 02:55:18;;;;;;;14.07;6.22;;;;;;;10.29;100.00;101281.06;4990330;28;20050;-64
2023/05/14 02:57:45;;;;;;;10.77;4.70;;;;;;;10.38;100.00;101280.88;4971504;28;20050;-64
2023/05/14 03:00:12;;;;;;;15.57;6.80;;;;;;;10.25;100.00;101268.09;4972145;28;20050;-64
2023/05/14 03:02:39;;;;;;;9.48;4.32;;;;;;;10.34;100.00;101258.28;4978010;28;20061;-65
2023/05/14 03:05:08;;;;;;;11.55;3.63;;;;;;;10.53;100.00;101271.72;4984316;28;20046;-65
2023/05/14 03:07:34;;;;;;;13.60;4.95;;;;;;;10.42;100.00;101266.78;4982905;28;20078;-65
2023/05/14 03:10:01;;;;;;;14.77;5.70;;;;;;;10.23;100.00;101274.25;4990382;28;20077;-65
2023/05/14 03:12:28;;;;;;;15.10;5.72;;;;;;;10.18;100.00;101250.84;4989947;28;20069;-65
2023/05/14 03:14:55;;;;;;;13.25;4.88;;;;;;;10.30;100.00;101244.41;4976204;28;20055;-65
2023/05/14 03:17:21;;;;;;;11.82;4.53;;;;;;;10.31;100.00;101242.66;4990575;28;20056;-65
2023/05/14 03:19:49;;;;;;;12.85;5.97;;;;;;;10.31;100.00;101245.28;4989669;28;20077;-65
2023/05/14 03:22:16;;;;;;;9.90;4.28;;;;;;;10.33;100.00;101241.72;4990634;28;20054;-65
2023/05/14 03:24:42;;;;;;;11.88;4.88;;;;;;;10.22;100.00;101241.16;4989342;28;20182;-65
2023/05/14 03:27:09;;;;;;;11.70;4.97;;;;;;;10.24;100.00;101237.56;4990311;28;20058;-64
2023/05/14 03:29:36;;;;;;;13.20;5.15;;;;;;;10.23;100.00;101230.66;4989895;28;20058;-65
2023/05/14 03:32:03;;;;;;;10.35;4.47;;;;;;;10.18;100.00;101227.31;4976491;28;20066;-65
2023/05/14 03:34:29;;;;;;;11.70;5.30;;;;;;;10.13;100.00;101231.81;4989142;28;20455;-65
2023/05/14 03:36:56;;;;;;;13.82;4.97;;;;;;;10.14;100.00;101227.41;4990096;28;20066;-65
2023/05/14 03:39:23;;;;;;;11.55;5.55;;;;;;;10.05;100.00;101225.91;4989316;28;20456;-65
2023/05/14 03:41:50;;;;;;;13.68;4.78;;;;;;;10.07;100.00;101227.59;4990002;28;20057;-65
2023/05/14 03:44:16;;;;;;;12.40;5.05;;;;;;;10.15;100.00;101218.69;4988969;28;20042;-65
2023/05/14 03:46:43;;;;;;;11.90;4.93;;;;;;;10.02;100.00;101210.28;4988888;28;20046;-64
2023/05/14 03:49:10;;;;;;;11.90;5.50;;;;;;;9.90;100.00;101224.59;4989585;28;20137;-65
2023/05/14 03:51:37;;;;;;;9.57;4.30;;;;;;;9.91;100.00;101213.19;4990072;28;20109;-65
2023/05/14 03:54:03;;;;;;;11.18;5.28;;;;;;;9.85;100.00;101203.78;4989646;28;20050;-64
2023/05/14 03:56:30;;;;;;;12.52;5.32;;;;;;;9.77;100.00;101197.03;4990343;28;20476;-65
2023/05/14 03:58:57;;;;;;;9.90;4.60;;;;;;;9.88;100.00;101195.84;4988312;28;20050;-64
2023/05/14 04:01:24;;;;;;;12.85;5.85;;;;;;;9.80;100.00;101200.41;4990070;28;20073;-64
2023/05/14 04:03:50;;;;;;;9.85;4.38;;;;;;;9.88;100.00;101203.69;4989942;28;20042;-65
2023/05/14 04:06:18;;;;;;;14.10;4.97;;;;;;;9.88;100.00;101197.63;4989388;28;20054;-65
2023/05/14 04:08:44;;;;;;;12.02;5.32;;;;;;;9.87;100.00;101201.13;4989474;28;20054;-64
2023/05/14 04:11:11;;;;;;;11.52;5.07;;;;;;;9.93;100.00;101207.94;4988894;28;20058;-64
2023/05/14 04:13:38;;;;;;;7.75;3.22;;;;;;;10.04;100.00;101201.50;4989794;28;20175;-64
2023/05/14 04:16:05;;;;;;;12.90;5.30;;;;;;;9.99;100.00;101202.56;4989388;28;20484;-65
2023/05/14 04:18:34;;;;;;;9.10;3.78;;;;;;;10.05;100.00;101203.22;4989259;28;20502;-65
2023/05/14 04:21:01;;;;;;;9.30;3.92;;;;;;;10.08;100.00;101197.91;4989322;28;20112;-65
2023/05/14 04:23:30;;;;;;;10.93;4.95;;;;;;;10.11;100.00;101196.09;4985354;28;20048;-64
2023/05/14 04:25:57;;;;;;;15.02;5.00;;;;;;;9.92;100.00;101193.16;4985147;28;20493;-65
2023/05/14 04:28:24;;;;;;;9.15;3.92;;;;;;;9.96;100.00;101185.16;4992554;28;20046;-65
2023/05/14 04:30:51;;;;;;;9.38;4.15;;;;;;;9.91;100.00;101181.81;4993316;28;20058;-65
2023/05/14 04:33:18;;;;;;;7.72;3.53;;;;;;;9.92;100.00;101180.94;4992916;28;20046;-64
2023/05/14 04:35:45;;;;;;;11.00;5.13;;;;;;;9.67;100.00;101175.50;4992571;28;20038;-64
2023/05/14 04:38:13;;;;;;;10.10;3.58;;;;;;;9.80;100.00;101169.03;4993484;28;20485;-65
2023/05/14 04:40:43;;;;;;;12.60;4.53;;;;;;;9.94;100.00;101154.72;4995443;28;20057;-64
2023/05/14 04:43:09;;;;;;;12.63;6.43;;;;;;;9.77;100.00;101158.66;4992650;28;20085;-65
2023/05/14 04:45:36;;;;;;;10.52;5.25;;;;;;;9.85;100.00;101156.69;4975805;28;20054;-65
2023/05/14 04:48:04;;;;;;;10.57;4.80;;;;;;;10.01;100.00;101162.34;4993535;28;20457;-65
2023/05/14 04:50:31;;;;;;;11.13;4.93;;;;;;;10.14;100.00;101165.47;4992407;28;20468;-64
2023/05/14 04:52:57;;;;;;;11.32;4.80;;;;;;;10.12;100.00;101163.81;4991760;28;20054;-64
2023/05/14 04:55:24;;;;;;;9.77;4.47;;;;;;;10.06;100.00;101154.38;4992317;28;20138;-64
2023/05/14 04:57:51;;;;;;;10.23;4.80;;;;;;;10.15;100.00;101151.50;4992680;28;20054;-64
2023/05/14 05:00:20;;;;;;;11.45;5.28;;;;;;;10.12;100.00;101150.72;4972230;28;20054;-65
2023/05/14 05:02:47;;;;;;;11.23;4.40;;;;;;;10.10;100.00;101148.16;4992086;28;20081;-65
2023/05/14 05:05:14;;;;;;;10.00;4.60;;;;;;;10.22;100.00;101150.41;4991341;28;20074;-65
2023/05/14 05:07:41;;;;;;;9.32;4.05;;;;;;;10.40;100.00;101154.28;4992724;28;20125;-65
2023/05/14 05:10:08;;;;;;;10.80;4.82;;;;;;;10.43;100.00;101151.56;4992675;28;20101;-65
2023/05/14 05:12:35;;;;;;;12.85;4.57;;;;;;;10.35;100.00;101130.00;4992548;28;20058;-65
2023/05/14 05:15:02;;;;;;;9.13;4.03;;;;;;;10.23;100.00;101136.44;4990387;28;20447;-65
2023/05/14 05:17:29;;;;;;;12.75;5.03;;;;;;;10.16;100.00;101119.16;4993222;28;20058;-65
2023/05/14 05:19:56;;;;;;;10.73;5.00;;;;;;;10.27;100.00;101126.72;4991624;28;20042;-65
2023/05/14 05:22:23;;;;;;;12.90;6.07;;;;;;;10.36;100.00;101141.34;4992299;28;20054;-65
2023/05/14 05:24:50;;;;;;;11.75;5.25;;;;;;;10.51;100.00;101127.75;4995694;28;20483;-64
2023/05/14 05:27:16;;;;;;;10.07;4.60;;;;;;;10.82;100.00;101121.56;5003981;28;20046;-65
2023/05/14 05:29:43;;;;;;;9.60;4.55;;;;;;;10.93;100.00;101124.69;4991562;28;20054;-65
2023/05/14 05:32:10;;;;;;;13.50;6.22;;;;;;;10.78;100.00;101114.69;4992395;28;20065;-66
2023/05/14 05:34:37;;;;;;;9.27;4.68;;;;;;;11.09;100.00;101114.53;4990339;28;20189;-65
2023/05/14 05:37:04;;;;;;;9.68;4.78;;;;;;;11.14;100.00;101114.41;4991387;28;20050;-65
2023/05/14 05:39:33;;;;;;;11.20;5.90;;;;;;;11.40;100.00;101118.72;4991668;28;20593;-65
2023/05/14 05:42:01;;;;;;;10.38;4.18;;;;;;;11.54;100.00;101108.63;4970710;28;20476;-65
2023/05/14 05:44:28;;;;;;;10.05;4.40;;;;;;;11.90;100.00;101107.34;4986059;28;20054;-65
2023/05/14 05:46:55;;;;;;;8.85;4.30;;;;;;;12.10;100.00;101107.47;4992238;28;20058;-65
2023/05/14 05:49:23;;;;;;;9.10;3.90;;;;;;;12.41;100.00;101097.53;4992396;28;20145;-65
2023/05/14 05:51:49;;;;;;;9.57;4.97;;;;;;;12.50;100.00;101107.69;4991624;28;20062;-65
2023/05/14 05:54:16;;;;;;;10.05;4.63;;;;;;;12.53;100.00;101107.56;4989712;28;20058;-65
2023/05/14 05:56:43;;;;;;;9.73;3.47;;;;;;;12.78;100.00;101103.94;4991147;28;20685;-65
2023/05/14 05:59:09;;;;;;;7.10;3.15;;;;;;;13.06;100.00;101103.66;4987264;28;20047;-65
2023/05/14 06:01:36;;;;;;;8.52;3.63;;;;;;;13.34;100.00;101092.00;4983383;28;20058;-65
2023/05/14 06:04:05;;;;;;;7.80;3.33;;;;;;;13.58;100.00;101100.56;4991278;28;20543;-65
2023/05/14 06:06:31;;;;;;;8.57;3.78;;;;;;;13.67;100.00;101100.19;4983153;28;20125;-65
2023/05/14 06:09:00;;;;;;;8.85;3.97;;;;;;;13.57;100.00;101096.25;4992743;28;20491;-65
2023/05/14 06:11:27;;;;;;;10.00;4.78;;;;;;;13.66;100.00;101101.09;4985529;28;20093;-65
2023/05/14 06:13:54;;;;;;;10.75;3.58;;;;;;;13.79;100.00;101098.75;4981486;28;20492;-65
2023/05/14 06:16:20;;;;;;;9.65;3.92;;;;;;;14.05;100.00;101098.41;4973240;28;20054;-65
2023/05/14 06:18:47;;;;;;;9.10;2.70;;;;;;;14.37;100.00;101097.84;4982688;28;20392;-65
2023/05/14 06:21:14;;;;;;;7.72;2.83;;;;;;;14.57;100.00;101095.13;4979492;28;20141;-65
2023/05/14 06:23:41;;;;;;;6.85;2.67;;;;;;;15.00;100.00;101089.53;4980475;28;20050;-65
2023/05/14 06:26:07;;;;;;;9.07;3.30;;;;;;;15.08;100.00;101094.41;4988281;28;20050;-65
2023/05/14 06:28:34;;;;;;;11.65;3.30;;;;;;;15.61;100.00;101076.72;4958739;28;20058;-65
2023/05/14 06:31:00;;;;;;;6.25;2.28;;;;;;;15.88;100.00;101063.84;4982122;28;20055;-65
2023/05/14 06:33:30;;;;;;;8.63;2.42;;;;;;;16.24;100.00;101075.97;4977648;28;20046;-66
2023/05/14 06:36:05;;;;;;;7.40;2.75;;;;;;;16.51;100.00;101074.41;4991295;28;20045;-65
2023/05/14 06:38:32;;;;;;;7.55;2.47;;;;;;;16.78;100.00;101079.03;4991453;28;20053;-65
2023/05/14 06:40:58;;;;;;;6.60;2.50;;;;;;;16.38;100.00;101064.59;4988132;28;20046;-66
2023/05/14 06:43:25;;;;;;;6.45;2.25;;;;;;;17.07;100.00;101069.44;4982543;28;20652;-66
2023/05/14 06:45:52;;;;;;;7.75;2.85;;;;;;;17.41;100.00;101066.53;4982193;28;20046;-66
2023/05/14 06:48:19;;;;;;;5.82;2.20;;;;;;;17.43;100.00;101062.00;4981968;28;20055;-66
2023/05/14 06:50:47;;;;;;;6.28;2.30;;;;;;;17.72;100.00;101073.44;4984566;28;20058;-66
2023/05/14 06:53:15;;;;;;;6.95;2.35;;;;;;;17.76;100.00;101077.59;4982374;28;20454;-66
2023/05/14 06:55:42;;;;;;;6.03;2.08;;;;;;;17.89;100.00;101076.88;4985312;28;20046;-66
2023/05/14 06:58:08;;;;;;;6.45;2.00;;;;;;;17.92;100.00;101050.16;4984097;28;20062;-66
2023/05/14 07:00:35;;;;;;;7.43;2.20;;;;;;;17.78;100.00;101035.97;4983119;28;20062;-66
2023/05/14 07:03:02;;;;;;;5.88;2.00;;;;;;;18.45;100.00;101061.78;4988811;28;20046;-66
2023/05/14 07:05:29;;;;;;;7.32;2.40;;;;;;;18.35;100.00;101050.06;4981805;28;20050;-66
2023/05/14 07:07:56;;;;;;;7.40;2.20;;;;;;;18.57;100.00;101050.38;4987835;28;20113;-66
2023/05/14 07:10:23;;;;;;;7.80;2.45;;;;;;;19.06;100.00;101048.03;4963250;28;20081;-66
2023/05/14 07:12:51;;;;;;;6.25;2.20;;;;;;;18.74;100.00;101037.78;4969187;28;20109;-66
2023/05/14 07:15:18;;;;;;;8.65;2.63;;;;;;;19.06;100.00;101038.25;4972788;28;20046;-66
2023/05/14 07:17:44;;;;;;;9.30;2.60;;;;;;;18.47;100.00;101043.09;4979538;28;20051;-66
2023/05/14 07:20:12;;;;;;;6.15;2.08;;;;;;;18.88;100.00;101042.19;4979254;28;20056;-66
2023/05/14 07:22:38;;;;;;;6.00;1.92;;;;;;;18.68;100.00;101044.34;4983302;28;20080;-66
2023/05/14 07:25:06;;;;;;;6.07;2.00;;;;;;;18.47;100.00;101045.75;4975298;28;20073;-66
2023/05/14 07:27:32;;;;;;;6.55;1.98;;;;;;;18.76;100.00;101049.13;4965712;28;20058;-65
2023/05/14 07:29:59;;;;;;;7.15;2.38;;;;;;;19.03;100.00;101045.59;4987782;28;20054;-65
2023/05/14 07:32:26;;;;;;;7.32;2.60;;;;;;;18.43;100.00;101041.59;4995298;28;20055;-65
2023/05/14 07:34:53;;;;;;;6.43;2.35;;;;;;;18.19;100.00;101040.44;4980435;28;20055;-65
2023/05/14 07:37:21;;;;;;;7.38;2.55;;;;;;;18.38;100.00;101026.84;4977760;28;20069;-65
2023/05/14 07:39:49;;;;;;;6.13;1.80;;;;;;;18.59;100.00;101019.28;4968873;28;20084;-65
2023/05/14 07:42:17;;;;;;;6.13;2.20;;;;;;;18.25;100.00;101019.81;4978496;28;20050;-65
2023/05/14 07:44:57;;;;;;;6.00;2.05;;;;;;;18.51;100.00;101018.09;4989088;28;20126;-65
2023/05/14 07:47:24;;;;;;;5.63;2.00;;;;;;;18.54;100.00;101009.94;4978332;28;20058;-65
2023/05/14 07:49:57;;;;;;;5.85;1.90;;;;;;;18.50;100.00;101016.38;4981977;28;20054;-65
2023/05/14 07:52:24;;;;;;;5.80;1.88;;;;;;;18.67;100.00;101018.75;4987468;28;20077;-66
2023/05/14 07:54:51;;;;;;;7.13;2.22;;;;;;;19.03;100.00;101009.28;4986151;28;20057;-65
2023/05/14 07:57:19;;;;;;;8.50;2.63;;;;;;;19.24;100.00;101016.72;4985606;28;20050;-66
2023/05/14 07:59:47;;;;;;;6.65;2.30;;;;;;;19.43;100.00;101018.94;4989047;28;20089;-65
2023/05/14 08:02:15;;;;;;;8.60;2.70;;;;;;;19.02;100.00;101012.91;4968362;28;20150;-67
2023/05/14 08:04:43;;;;;;;7.32;2.42;;;;;;;18.89;100.00;101009.38;4983203;28;20043;-65
2023/05/14 08:07:10;;;;;;;6.70;2.42;;;;;;;19.40;100.00;101012.03;4988884;28;20054;-64
2023/05/14 08:09:36;;;;;;;6.63;2.40;;;;;;;20.06;100.00;101006.47;4987440;28;20053;-65
2023/05/14 08:12:03;;;;;;;6.25;2.13;;;;;;;20.16;100.00;100999.50;4992610;28;20053;-66
2023/05/14 08:14:31;;;;;;;6.97;2.45;;;;;;;19.73;100.00;101005.28;4991864;28;20062;-67
2023/05/14 08:16:58;;;;;;;6.93;2.53;;;;;;;20.20;100.00;100997.47;4982576;28;20112;-65
2023/05/14 08:19:26;;;;;;;5.55;2.00;;;;;;;19.89;100.00;100991.78;4956773;28;20081;-65
2023/05/14 08:21:53;;;;;;;7.20;2.28;;;;;;;20.20;100.00;100992.16;4992324;28;20046;-66
2023/05/14 08:24:19;;;;;;;5.13;1.88;;;;;;;19.88;100.00;100959.03;4984210;28;20057;-65
2023/05/14 08:26:48;;;;;;;8.93;2.65;;;;;;;20.02;100.00;100995.22;4992370;28;20058;-65
2023/05/14 08:29:19;;;;;;;6.20;2.30;;;;;;;20.21;100.00;100989.38;4964577;28;20081;-66
2023/05/14 08:31:47;;;;;;;5.25;1.83;;;;;;;20.41;100.00;100979.06;4984984;28;20097;-65
2023/05/14 08:34:14;;;;;;;6.85;1.88;;;;;;;20.28;100.00;100974.69;4985469;28;20055;-66
2023/05/14 08:36:41;;;;;;;4.80;1.60;;;;;;;20.36;100.00;100973.25;4986504;28;20047;-65
2023/05/14 08:39:08;;;;;;;7.50;2.13;;;;;;;19.99;100.00;100987.47;4991896;28;20396;-66
2023/05/14 08:41:36;;;;;;;7.80;2.60;;;;;;;19.82;100.00;100982.56;4992705;28;20680;-65
2023/05/14 08:44:11;;;;;;;6.50;2.42;;;;;;;19.91;100.00;100977.41;4989952;28;20560;-65
2023/05/14 08:46:39;;;;;;;7.03;2.30;;;;;;;19.65;100.00;100963.31;4974436;28;20051;-65
2023/05/14 08:49:31;;;;;;;7.82;2.40;;;;;;;20.29;100.00;100976.38;4983281;28;20514;-66
2023/05/14 08:51:59;;;;;;;6.32;1.75;;;;;;;20.25;100.00;100971.41;4978550;28;20058;-65
2023/05/14 08:54:27;;;;;;;5.80;1.80;;;;;;;20.63;100.00;100971.19;4988302;28;20050;-66
2023/05/14 08:56:54;;;;;;;7.82;2.47;;;;;;;20.09;100.00;100969.88;4991896;28;20057;-65
2023/05/14 08:59:22;;;;;;;5.88;2.20;;;;;;;20.43;100.00;100969.16;4992407;28;20054;-65
2023/05/14 09:01:52;;;;;;;5.20;1.80;;;;;;;20.60;100.00;100974.06;4988737;28;20050;-65
2023/05/14 09:04:21;;;;;;;5.60;1.90;;;;;;;20.42;100.00;100978.13;4986548;28;20129;-65
2023/05/14 09:06:50;;;;;;;5.80;2.10;;;;;;;20.02;100.00;100967.78;4991081;28;20081;-65
2023/05/14 09:09:17;;;;;;;5.38;1.85;;;;;;;19.94;100.00;100973.69;4991159;28;20054;-66
2023/05/14 09:11:46;;;;;;;7.07;2.28;;;;;;;19.67;100.00;100960.56;4990196;28;20046;-66
2023/05/14 09:14:12;;;;;;;5.32;1.98;;;;;;;19.72;100.00;100947.78;4991614;28;20141;-66
2023/05/14 09:16:41;;;;;;;5.65;1.73;;;;;;;19.39;100.00;100959.03;4991663;28;20191;-66
2023/05/14 09:19:08;;;;;;;7.07;2.33;;;;;;;19.81;100.00;100959.59;4985543;28;20556;-66
2023/05/14 09:21:35;;;;;;;7.60;2.55;;;;;;;19.66;100.00;100953.56;4989916;28;20116;-66
2023/05/14 09:24:03;;;;;;;6.63;2.63;;;;;;;19.31;100.00;100955.09;4984449;28;20057;-66
2023/05/14 09:26:31;;;;;;;8.18;2.75;;;;;;;19.48;100.00;100950.44;4964124;28;20049;-66
2023/05/14 09:29:00;;;;;;;6.57;2.50;;;;;;;19.29;100.00;100945.56;4989100;28;20116;-66
2023/05/14 09:31:30;;;;;;;8.35;2.70;;;;;;;19.25;100.00;100952.06;4988256;28;20050;-65
2023/05/14 09:33:59;;;;;;;7.72;2.40;;;;;;;19.46;100.00;100944.34;4969615;28;20051;-66
2023/05/14 09:36:27;;;;;;;8.60;2.67;;;;;;;19.40;100.00;100932.38;4968542;28;20042;-66
2023/05/14 09:38:57;;;;;;;7.65;2.58;;;;;;;19.40;100.00;100940.34;4986293;28;20549;-65
2023/05/14 09:41:24;;;;;;;8.85;2.70;;;;;;;20.13;100.00;100933.28;4990635;28;20054;-65
2023/05/14 09:43:51;;;;;;;6.93;2.63;;;;;;;19.99;100.00;100946.75;4991567;28;20060;-65
2023/05/14 09:46:19;;;;;;;8.20;3.22;;;;;;;19.77;100.00;100920.94;4991219;28;20619;-66
2023/05/14 09:48:46;;;;;;;8.02;2.33;;;;;;;20.39;100.00;100944.63;4986015;28;20046;-66
2023/05/14 09:51:13;;;;;;;7.30;2.38;;;;;;;19.54;100.00;100940.19;4974017;28;20064;-66
2023/05/14 09:53:42;;;;;;;5.95;2.10;;;;;;;19.72;100.00;100938.03;4989255;28;20386;-66
2023/05/14 09:56:13;;;;;;;7.30;2.15;;;;;;;19.83;100.00;100933.75;4982091;28;20050;-66
2023/05/14 09:58:48;;;;;;;4.53;1.73;;;;;;;20.39;100.00;100938.47;4990360;28;20055;-66
2023/05/14 10:01:19;;;;;;;5.20;1.67;;;;;;;20.29;100.00;100936.50;4972728;28;20104;-67
2023/05/14 10:03:50;;;;;;;5.67;1.73;;;;;;;20.24;100.00;100925.38;4976859;28;20069;-66
2023/05/14 10:06:20;;;;;;;4.78;1.60;;;;;;;20.44;100.00;100920.34;4986524;28;20318;-66
2023/05/14 10:09:00;;;;;;;6.78;1.98;;;;;;;20.45;100.00;100928.22;4962454;28;20690;-66
2023/05/14 10:11:32;;;;;;;4.78;1.70;;;;;;;20.22;100.00;100923.78;4972592;28;20490;-65
2023/05/14 10:14:06;;;;;;;6.43;1.55;;;;;;;20.30;100.00;100927.53;4968995;28;20050;-65
2023/05/14 10:16:37;;;;;;;5.45;1.70;;;;;;;20.37;100.00;100919.97;4986485;28;20039;-67
2023/05/14 10:19:08;;;;;;;5.03;1.50;;;;;;;20.74;100.00;100919.00;4985069;28;20058;-66
2023/05/14 10:21:37;;;;;;;4.68;1.42;;;;;;;20.79;100.00;100924.81;4989024;28;20134;-66
2023/05/14 10:24:11;;;;;;;4.50;1.55;;;;;;;20.80;100.00;100924.66;4971952;28;20383;-66
2023/05/14 10:26:40;;;;;;;4.47;1.50;;;;;;;20.82;100.00;100920.09;4990744;28;20447;-66
2023/05/14 10:29:12;;;;;;;4.03;1.50;;;;;;;20.89;100.00;100923.09;4982548;28;20144;-66
2023/05/14 10:31:49;;;;;;;4.72;1.63;;;;;;;20.57;100.00;100918.44;4967492;28;20133;-66
2023/05/14 10:34:39;;;;;;;3.60;1.42;;;;;;;20.70;100.00;100917.50;4987040;28;20050;-64
2023/05/14 10:37:08;;;;;;;3.55;1.30;;;;;;;20.48;100.00;100905.84;4994522;28;20107;-67
2023/05/14 10:39:58;;;;;;;5.85;1.50;;;;;;;20.69;100.00;100919.34;4988880;28;20055;-66
2023/05/14 10:42:28;;;;;;;4.53;1.58;;;;;;;20.71;100.00;100925.38;4971266;28;20137;-66
2023/05/14 10:44:57;;;;;;;4.25;1.38;;;;;;;20.79;100.00;100924.81;4974749;28;20396;-66
2023/05/14 10:47:27;;;;;;;3.60;1.30;;;;;;;20.95;100.00;100933.28;4987583;28;20061;-66
2023/05/14 10:49:58;;;;;;;3.72;1.38;;;;;;;20.57;100.00;100923.75;4970483;28;20419;-67
2023/05/14 10:52:32;;;;;;;4.50;1.20;;;;;;;20.58;100.00;100916.63;4982114;28;20058;-66
2023/05/14 10:55:09;;;;;;;3.70;1.20;;;;;;;20.48;100.00;100927.94;4986572;28;20058;-66
2023/05/14 10:57:38;;;;;;;2.92;1.10;;;;;;;20.08;100.00;100935.47;4970360;28;20065;-66
2023/05/14 11:00:07;;;;;;;3.88;1.30;;;;;;;20.00;100.00;100935.16;4958773;28;20055;-66
2023/05/14 11:02:37;;;;;;;2.65;1.00;;;;;;;19.65;100.00;100938.56;4989375;28;20133;-66
2023/05/14 11:05:06;;;;;;;2.88;1.20;;;;;;;19.31;100.00;100935.69;4981459;28;20238;-66
2023/05/14 11:07:42;;;;;;;4.00;1.17;;;;;;;19.23;100.00;100933.59;4984692;28;20239;-66
2023/05/14 11:10:17;;;;;;;3.17;1.02;;;;;;;18.98;100.00;100945.06;4986693;28;20141;-66
2023/05/14 11:12:47;;;;;;;4.90;1.13;;;;;;;18.73;100.00;100927.31;4972727;28;20109;-66
2023/05/14 11:15:20;;;;;;;2.55;0.93;;;;;;;18.82;100.00;100932.00;4971766;28;20117;-64
2023/05/14 11:17:49;;;;;;;5.50;1.10;;;;;;;18.90;100.00;100937.63;4955243;28;20073;-65
2023/05/14 11:20:17;;;;;;;3.17;1.10;;;;;;;18.98;100.00;100931.78;4986126;28;20520;-66